sensor_id;sensor_type;location;lat;lon;timestamp;P1;durP1;ratioP1;P2;durP2;ratioP2
35418;SDS011;21525;41.240;16.500;2023-01-19T00:01:49;2.70;;;1.00;;
35418;SDS011;21525;41.240;16.500;2023-01-19T00:04:15;1.67;;;0.57;;
35418;SDS011;21525;41.240;16.500;2023-01-19T00:06:41;3.20;;;0.70;;
35418;SDS011;21525;41.240;16.500;2023-01-19T00:09:07;2.22;;;0.80;;
35418;SDS011;21525;41.240;16.500;2023-01-19T00:11:32;2.08;;;0.63;;
35418;SDS011;21525;41.240;16.500;2023-01-19T00:21:52;3.53;;;0.63;;
35418;SDS011;21525;41.240;16.500;2023-01-19T00:24:18;1.92;;;0.68;;
35418;SDS011;21525;41.240;16.500;2023-01-19T00:26:46;1.40;;;0.57;;
35418;SDS011;21525;41.240;16.500;2023-01-19T00:29:12;2.35;;;0.50;;
35418;SDS011;21525;41.240;16.500;2023-01-19T00:31:40;1.02;;;0.73;;
35418;SDS011;21525;41.240;16.500;2023-01-19T00:34:06;1.27;;;0.60;;
35418;SDS011;21525;41.240;16.500;2023-01-19T00:36:32;1.33;;;0.60;;
35418;SDS011;21525;41.240;16.500;2023-01-19T00:38:59;2.03;;;0.70;;
35418;SDS011;21525;41.240;16.500;2023-01-19T00:41:25;1.05;;;0.60;;
35418;SDS011;21525;41.240;16.500;2023-01-19T00:44:10;1.35;;;0.50;;
35418;SDS011;21525;41.240;16.500;2023-01-19T00:46:36;0.45;;;0.40;;
35418;SDS011;21525;41.240;16.500;2023-01-19T00:49:03;0.90;;;0.50;;
35418;SDS011;21525;41.240;16.500;2023-01-19T00:51:29;1.40;;;0.57;;
35418;SDS011;21525;41.240;16.500;2023-01-19T00:53:55;0.40;;;0.40;;
35418;SDS011;21525;41.240;16.500;2023-01-19T00:56:24;0.47;;;0.47;;
35418;SDS011;21525;41.240;16.500;2023-01-19T00:58:49;2.78;;;0.60;;
35418;SDS011;21525;41.240;16.500;2023-01-19T01:01:15;0.35;;;0.30;;
35418;SDS011;21525;41.240;16.500;2023-01-19T01:03:41;1.23;;;0.55;;
35418;SDS011;21525;41.240;16.500;2023-01-19T01:06:07;2.05;;;0.50;;
35418;SDS011;21525;41.240;16.500;2023-01-19T01:24:58;1.00;;;0.60;;
35418;SDS011;21525;41.240;16.500;2023-01-19T01:27:24;0.63;;;0.43;;
35418;SDS011;21525;41.240;16.500;2023-01-19T01:29:49;0.55;;;0.35;;
35418;SDS011;21525;41.240;16.500;2023-01-19T01:32:15;0.65;;;0.52;;
35418;SDS011;21525;41.240;16.500;2023-01-19T01:34:41;2.85;;;0.68;;
35418;SDS011;21525;41.240;16.500;2023-01-19T01:37:07;1.25;;;0.50;;
35418;SDS011;21525;41.240;16.500;2023-01-19T01:39:36;0.75;;;0.50;;
35418;SDS011;21525;41.240;16.500;2023-01-19T01:42:02;1.48;;;0.60;;
35418;SDS011;21525;41.240;16.500;2023-01-19T01:47:23;1.27;;;0.60;;
35418;SDS011;21525;41.240;16.500;2023-01-19T01:50:10;0.50;;;0.50;;
35418;SDS011;21525;41.240;16.500;2023-01-19T01:52:39;1.55;;;0.50;;
35418;SDS011;21525;41.240;16.500;2023-01-19T01:55:19;2.50;;;0.43;;
35418;SDS011;21525;41.240;16.500;2023-01-19T01:57:49;1.07;;;0.50;;
35418;SDS011;21525;41.240;16.500;2023-01-19T02:00:22;1.00;;;0.40;;
35418;SDS011;21525;41.240;16.500;2023-01-19T02:02:52;1.42;;;0.40;;
35418;SDS011;21525;41.240;16.500;2023-01-19T02:11:04;3.00;;;0.50;;
35418;SDS011;21525;41.240;16.500;2023-01-19T02:13:49;2.22;;;0.50;;
35418;SDS011;21525;41.240;16.500;2023-01-19T02:16:16;0.40;;;0.40;;
35418;SDS011;21525;41.240;16.500;2023-01-19T02:18:42;1.27;;;0.30;;
35418;SDS011;21525;41.240;16.500;2023-01-19T02:21:22;0.50;;;0.50;;
35418;SDS011;21525;41.240;16.500;2023-01-19T02:23:54;0.52;;;0.40;;
35418;SDS011;21525;41.240;16.500;2023-01-19T02:26:23;0.80;;;0.50;;
35418;SDS011;21525;41.240;16.500;2023-01-19T02:28:57;1.48;;;0.45;;
35418;SDS011;21525;41.240;16.500;2023-01-19T02:31:25;3.30;;;0.70;;
35418;SDS011;21525;41.240;16.500;2023-01-19T02:33:53;1.37;;;0.70;;
35418;SDS011;21525;41.240;16.500;2023-01-19T02:36:21;0.80;;;0.30;;
35418;SDS011;21525;41.240;16.500;2023-01-19T02:38:51;0.50;;;0.40;;
35418;SDS011;21525;41.240;16.500;2023-01-19T02:41:21;0.30;;;0.30;;
35418;SDS011;21525;41.240;16.500;2023-01-19T02:43:52;1.88;;;0.40;;
35418;SDS011;21525;41.240;16.500;2023-01-19T02:46:20;0.65;;;0.43;;
35418;SDS011;21525;41.240;16.500;2023-01-19T02:48:46;0.45;;;0.45;;
35418;SDS011;21525;41.240;16.500;2023-01-19T02:53:41;0.88;;;0.30;;
35418;SDS011;21525;41.240;16.500;2023-01-19T02:59:01;1.90;;;0.50;;
35418;SDS011;21525;41.240;16.500;2023-01-19T03:01:32;2.20;;;0.50;;
35418;SDS011;21525;41.240;16.500;2023-01-19T03:07:08;1.63;;;0.50;;
35418;SDS011;21525;41.240;16.500;2023-01-19T03:09:47;1.63;;;0.40;;
35418;SDS011;21525;41.240;16.500;2023-01-19T03:15:22;0.80;;;0.40;;
35418;SDS011;21525;41.240;16.500;2023-01-19T03:17:55;1.80;;;0.40;;
35418;SDS011;21525;41.240;16.500;2023-01-19T03:20:24;3.10;;;0.57;;
35418;SDS011;21525;41.240;16.500;2023-01-19T03:22:55;1.17;;;0.50;;
35418;SDS011;21525;41.240;16.500;2023-01-19T03:25:25;0.82;;;0.40;;
35418;SDS011;21525;41.240;16.500;2023-01-19T03:27:55;0.82;;;0.50;;
35418;SDS011;21525;41.240;16.500;2023-01-19T03:30:27;2.88;;;0.80;;
35418;SDS011;21525;41.240;16.500;2023-01-19T03:33:39;0.70;;;0.50;;
35418;SDS011;21525;41.240;16.500;2023-01-19T03:35:52;0.73;;;0.40;;
35418;SDS011;21525;41.240;16.500;2023-01-19T03:38:24;0.80;;;0.43;;
35418;SDS011;21525;41.240;16.500;2023-01-19T03:40:55;1.75;;;0.47;;
35418;SDS011;21525;41.240;16.500;2023-01-19T03:43:24;1.88;;;0.45;;
35418;SDS011;21525;41.240;16.500;2023-01-19T03:45:51;1.05;;;0.40;;
35418;SDS011;21525;41.240;16.500;2023-01-19T03:48:19;1.33;;;0.40;;
35418;SDS011;21525;41.240;16.500;2023-01-19T03:50:46;1.10;;;0.45;;
35418;SDS011;21525;41.240;16.500;2023-01-19T03:53:13;1.48;;;0.45;;
35418;SDS011;21525;41.240;16.500;2023-01-19T03:55:41;1.15;;;0.40;;
35418;SDS011;21525;41.240;16.500;2023-01-19T03:58:09;2.50;;;0.80;;
35418;SDS011;21525;41.240;16.500;2023-01-19T04:00:35;2.13;;;0.90;;
35418;SDS011;21525;41.240;16.500;2023-01-19T04:03:02;1.60;;;0.80;;
35418;SDS011;21525;41.240;16.500;2023-01-19T04:05:28;1.45;;;0.80;;
35418;SDS011;21525;41.240;16.500;2023-01-19T04:07:54;4.35;;;0.85;;
35418;SDS011;21525;41.240;16.500;2023-01-19T04:10:20;0.88;;;0.68;;
35418;SDS011;21525;41.240;16.500;2023-01-19T04:12:47;1.95;;;0.80;;
35418;SDS011;21525;41.240;16.500;2023-01-19T04:15:13;2.00;;;0.75;;
35418;SDS011;21525;41.240;16.500;2023-01-19T04:17:39;2.50;;;0.80;;
35418;SDS011;21525;41.240;16.500;2023-01-19T04:20:06;2.70;;;0.80;;
35418;SDS011;21525;41.240;16.500;2023-01-19T04:22:33;0.45;;;0.45;;
35418;SDS011;21525;41.240;16.500;2023-01-19T04:25:00;0.63;;;0.40;;
35418;SDS011;21525;41.240;16.500;2023-01-19T04:27:26;1.00;;;0.70;;
35418;SDS011;21525;41.240;16.500;2023-01-19T04:29:51;2.67;;;0.90;;
35418;SDS011;21525;41.240;16.500;2023-01-19T04:32:17;1.80;;;1.20;;
35418;SDS011;21525;41.240;16.500;2023-01-19T04:34:43;1.52;;;0.93;;
35418;SDS011;21525;41.240;16.500;2023-01-19T04:37:09;5.65;;;1.00;;
35418;SDS011;21525;41.240;16.500;2023-01-19T04:39:35;1.73;;;1.00;;
35418;SDS011;21525;41.240;16.500;2023-01-19T04:42:00;3.55;;;1.25;;
35418;SDS011;21525;41.240;16.500;2023-01-19T04:44:27;1.77;;;1.05;;
35418;SDS011;21525;41.240;16.500;2023-01-19T04:46:52;2.88;;;1.10;;
35418;SDS011;21525;41.240;16.500;2023-01-19T04:49:19;2.65;;;1.30;;
35418;SDS011;21525;41.240;16.500;2023-01-19T04:51:45;2.65;;;1.25;;
35418;SDS011;21525;41.240;16.500;2023-01-19T04:54:11;2.30;;;1.45;;
35418;SDS011;21525;41.240;16.500;2023-01-19T04:56:36;6.05;;;2.28;;
35418;SDS011;21525;41.240;16.500;2023-01-19T04:59:02;3.58;;;1.48;;
35418;SDS011;21525;41.240;16.500;2023-01-19T05:01:28;2.65;;;1.27;;
35418;SDS011;21525;41.240;16.500;2023-01-19T05:03:56;3.55;;;1.30;;
35418;SDS011;21525;41.240;16.500;2023-01-19T05:08:48;1.88;;;0.60;;
35418;SDS011;21525;41.240;16.500;2023-01-19T05:11:15;2.28;;;0.77;;
35418;SDS011;21525;41.240;16.500;2023-01-19T05:13:40;0.82;;;0.60;;
35418;SDS011;21525;41.240;16.500;2023-01-19T05:16:06;1.80;;;0.90;;
35418;SDS011;21525;41.240;16.500;2023-01-19T05:18:32;8.20;;;3.67;;
35418;SDS011;21525;41.240;16.500;2023-01-19T05:21:01;10.25;;;5.55;;
35418;SDS011;21525;41.240;16.500;2023-01-19T05:23:30;8.77;;;3.80;;
35418;SDS011;21525;41.240;16.500;2023-01-19T05:25:57;2.90;;;1.42;;
35418;SDS011;21525;41.240;16.500;2023-01-19T05:28:25;1.52;;;1.10;;
35418;SDS011;21525;41.240;16.500;2023-01-19T05:30:55;2.53;;;1.20;;
35418;SDS011;21525;41.240;16.500;2023-01-19T05:33:21;4.15;;;1.27;;
35418;SDS011;21525;41.240;16.500;2023-01-19T05:35:51;4.03;;;1.80;;
35418;SDS011;21525;41.240;16.500;2023-01-19T05:38:17;2.08;;;1.10;;
35418;SDS011;21525;41.240;16.500;2023-01-19T05:40:45;3.63;;;1.10;;
35418;SDS011;21525;41.240;16.500;2023-01-19T05:43:11;3.40;;;1.10;;
35418;SDS011;21525;41.240;16.500;2023-01-19T05:45:37;1.83;;;1.25;;
35418;SDS011;21525;41.240;16.500;2023-01-19T05:48:04;3.63;;;1.50;;
35418;SDS011;21525;41.240;16.500;2023-01-19T05:50:31;3.53;;;1.85;;
35418;SDS011;21525;41.240;16.500;2023-01-19T05:52:57;4.40;;;2.15;;
35418;SDS011;21525;41.240;16.500;2023-01-19T05:55:24;4.03;;;2.28;;
35418;SDS011;21525;41.240;16.500;2023-01-19T05:57:50;4.20;;;2.33;;
35418;SDS011;21525;41.240;16.500;2023-01-19T06:00:16;9.00;;;3.95;;
35418;SDS011;21525;41.240;16.500;2023-01-19T06:02:42;10.93;;;4.75;;
35418;SDS011;21525;41.240;16.500;2023-01-19T06:05:08;9.52;;;4.95;;
35418;SDS011;21525;41.240;16.500;2023-01-19T06:07:34;22.70;;;12.40;;
35418;SDS011;21525;41.240;16.500;2023-01-19T06:10:00;24.42;;;12.45;;
35418;SDS011;21525;41.240;16.500;2023-01-19T06:12:26;29.45;;;15.85;;
35418;SDS011;21525;41.240;16.500;2023-01-19T06:14:52;16.70;;;8.90;;
35418;SDS011;21525;41.240;16.500;2023-01-19T06:17:18;17.80;;;9.63;;
35418;SDS011;21525;41.240;16.500;2023-01-19T06:19:44;11.27;;;5.68;;
35418;SDS011;21525;41.240;16.500;2023-01-19T06:22:10;13.32;;;5.15;;
35418;SDS011;21525;41.240;16.500;2023-01-19T06:24:36;26.15;;;13.80;;
35418;SDS011;21525;41.240;16.500;2023-01-19T06:27:02;42.97;;;26.98;;
35418;SDS011;21525;41.240;16.500;2023-01-19T06:29:28;43.70;;;26.60;;
35418;SDS011;21525;41.240;16.500;2023-01-19T06:31:54;65.43;;;38.50;;
35418;SDS011;21525;41.240;16.500;2023-01-19T06:34:20;70.13;;;41.35;;
35418;SDS011;21525;41.240;16.500;2023-01-19T06:36:46;46.78;;;28.42;;
35418;SDS011;21525;41.240;16.500;2023-01-19T06:39:12;36.80;;;21.75;;
35418;SDS011;21525;41.240;16.500;2023-01-19T06:41:38;31.10;;;15.48;;
35418;SDS011;21525;41.240;16.500;2023-01-19T06:44:04;15.93;;;9.10;;
35418;SDS011;21525;41.240;16.500;2023-01-19T06:46:30;15.55;;;7.63;;
35418;SDS011;21525;41.240;16.500;2023-01-19T06:48:56;14.20;;;6.07;;
35418;SDS011;21525;41.240;16.500;2023-01-19T06:51:22;18.42;;;8.80;;
35418;SDS011;21525;41.240;16.500;2023-01-19T06:53:48;20.58;;;13.57;;
35418;SDS011;21525;41.240;16.500;2023-01-19T06:56:14;22.90;;;14.65;;
35418;SDS011;21525;41.240;16.500;2023-01-19T06:58:40;27.67;;;15.73;;
35418;SDS011;21525;41.240;16.500;2023-01-19T07:01:09;28.70;;;15.15;;
35418;SDS011;21525;41.240;16.500;2023-01-19T07:03:35;25.65;;;14.35;;
35418;SDS011;21525;41.240;16.500;2023-01-19T07:06:03;30.83;;;14.98;;
35418;SDS011;21525;41.240;16.500;2023-01-19T07:08:31;21.50;;;11.82;;
35418;SDS011;21525;41.240;16.500;2023-01-19T07:11:07;22.13;;;11.73;;
35418;SDS011;21525;41.240;16.500;2023-01-19T07:13:36;24.08;;;10.25;;
35418;SDS011;21525;41.240;16.500;2023-01-19T07:16:06;22.95;;;11.20;;
35418;SDS011;21525;41.240;16.500;2023-01-19T07:18:33;27.27;;;12.90;;
35418;SDS011;21525;41.240;16.500;2023-01-19T07:21:00;23.42;;;12.35;;
35418;SDS011;21525;41.240;16.500;2023-01-19T07:23:25;20.08;;;10.77;;
35418;SDS011;21525;41.240;16.500;2023-01-19T07:25:58;23.17;;;12.68;;
35418;SDS011;21525;41.240;16.500;2023-01-19T07:28:28;25.65;;;11.50;;
35418;SDS011;21525;41.240;16.500;2023-01-19T07:30:55;19.38;;;10.18;;
35418;SDS011;21525;41.240;16.500;2023-01-19T07:33:21;19.48;;;10.30;;
35418;SDS011;21525;41.240;16.500;2023-01-19T07:35:49;18.20;;;9.35;;
35418;SDS011;21525;41.240;16.500;2023-01-19T07:38:15;13.30;;;8.07;;
35418;SDS011;21525;41.240;16.500;2023-01-19T07:40:43;15.93;;;7.90;;
35418;SDS011;21525;41.240;16.500;2023-01-19T07:43:09;15.25;;;7.60;;
35418;SDS011;21525;41.240;16.500;2023-01-19T07:45:36;16.13;;;8.55;;
35418;SDS011;21525;41.240;16.500;2023-01-19T07:48:02;13.73;;;7.43;;
35418;SDS011;21525;41.240;16.500;2023-01-19T07:50:27;17.05;;;8.15;;
35418;SDS011;21525;41.240;16.500;2023-01-19T07:52:54;17.55;;;8.73;;
35418;SDS011;21525;41.240;16.500;2023-01-19T07:55:21;19.05;;;9.10;;
35418;SDS011;21525;41.240;16.500;2023-01-19T07:57:48;15.50;;;10.32;;
35418;SDS011;21525;41.240;16.500;2023-01-19T08:00:18;21.38;;;11.77;;
35418;SDS011;21525;41.240;16.500;2023-01-19T08:02:46;16.83;;;8.88;;
35418;SDS011;21525;41.240;16.500;2023-01-19T08:05:16;9.50;;;5.85;;
35418;SDS011;21525;41.240;16.500;2023-01-19T08:07:43;9.30;;;4.28;;
35418;SDS011;21525;41.240;16.500;2023-01-19T08:10:11;6.95;;;3.92;;
35418;SDS011;21525;41.240;16.500;2023-01-19T08:12:38;6.03;;;3.17;;
35418;SDS011;21525;41.240;16.500;2023-01-19T08:15:05;8.23;;;4.03;;
35418;SDS011;21525;41.240;16.500;2023-01-19T08:17:31;8.18;;;3.40;;
35418;SDS011;21525;41.240;16.500;2023-01-19T08:19:57;3.42;;;2.40;;
35418;SDS011;21525;41.240;16.500;2023-01-19T08:22:23;5.47;;;2.50;;
35418;SDS011;21525;41.240;16.500;2023-01-19T08:24:49;9.13;;;2.00;;
35418;SDS011;21525;41.240;16.500;2023-01-19T08:27:16;11.32;;;3.00;;
35418;SDS011;21525;41.240;16.500;2023-01-19T08:29:41;5.68;;;2.78;;
35418;SDS011;21525;41.240;16.500;2023-01-19T08:32:08;8.63;;;3.20;;
35418;SDS011;21525;41.240;16.500;2023-01-19T08:34:34;7.30;;;2.47;;
35418;SDS011;21525;41.240;16.500;2023-01-19T08:37:00;6.63;;;3.03;;
35418;SDS011;21525;41.240;16.500;2023-01-19T08:39:26;6.45;;;3.08;;
35418;SDS011;21525;41.240;16.500;2023-01-19T08:41:52;5.78;;;3.70;;
35418;SDS011;21525;41.240;16.500;2023-01-19T08:44:18;6.22;;;2.92;;
35418;SDS011;21525;41.240;16.500;2023-01-19T08:46:44;7.55;;;3.45;;
35418;SDS011;21525;41.240;16.500;2023-01-19T08:49:11;7.25;;;3.65;;
35418;SDS011;21525;41.240;16.500;2023-01-19T08:51:37;8.07;;;2.55;;
35418;SDS011;21525;41.240;16.500;2023-01-19T08:54:03;7.05;;;3.22;;
35418;SDS011;21525;41.240;16.500;2023-01-19T08:56:29;4.97;;;2.40;;
35418;SDS011;21525;41.240;16.500;2023-01-19T08:58:55;5.13;;;2.30;;
35418;SDS011;21525;41.240;16.500;2023-01-19T09:01:23;7.05;;;2.63;;
35418;SDS011;21525;41.240;16.500;2023-01-19T09:03:49;5.82;;;2.30;;
35418;SDS011;21525;41.240;16.500;2023-01-19T09:06:16;11.27;;;3.53;;
35418;SDS011;21525;41.240;16.500;2023-01-19T09:08:43;5.05;;;1.92;;
35418;SDS011;21525;41.240;16.500;2023-01-19T09:11:10;7.47;;;2.15;;
35418;SDS011;21525;41.240;16.500;2023-01-19T09:16:06;4.45;;;1.40;;
35418;SDS011;21525;41.240;16.500;2023-01-19T09:18:33;4.10;;;1.90;;
35418;SDS011;21525;41.240;16.500;2023-01-19T09:20:59;4.57;;;1.80;;
35418;SDS011;21525;41.240;16.500;2023-01-19T09:23:26;5.45;;;2.22;;
35418;SDS011;21525;41.240;16.500;2023-01-19T09:25:57;7.38;;;2.85;;
35418;SDS011;21525;41.240;16.500;2023-01-19T09:28:24;5.53;;;3.03;;
35418;SDS011;21525;41.240;16.500;2023-01-19T09:30:51;10.85;;;2.20;;
35418;SDS011;21525;41.240;16.500;2023-01-19T09:33:18;3.92;;;1.90;;
35418;SDS011;21525;41.240;16.500;2023-01-19T09:35:44;5.40;;;2.70;;
35418;SDS011;21525;41.240;16.500;2023-01-19T09:38:12;4.45;;;1.70;;
35418;SDS011;21525;41.240;16.500;2023-01-19T09:40:43;3.80;;;1.90;;
35418;SDS011;21525;41.240;16.500;2023-01-19T09:45:58;5.22;;;2.20;;
35418;SDS011;21525;41.240;16.500;2023-01-19T09:51:23;6.70;;;2.92;;
35418;SDS011;21525;41.240;16.500;2023-01-19T09:56:26;6.00;;;3.10;;
35418;SDS011;21525;41.240;16.500;2023-01-19T09:58:53;8.73;;;2.75;;
35418;SDS011;21525;41.240;16.500;2023-01-19T10:06:40;10.00;;;3.78;;
35418;SDS011;21525;41.240;16.500;2023-01-19T10:09:14;11.85;;;5.55;;
35418;SDS011;21525;41.240;16.500;2023-01-19T10:11:54;14.18;;;4.82;;
35418;SDS011;21525;41.240;16.500;2023-01-19T10:14:30;10.45;;;3.30;;
35418;SDS011;21525;41.240;16.500;2023-01-19T10:19:49;7.65;;;3.10;;
35418;SDS011;21525;41.240;16.500;2023-01-19T10:22:24;11.50;;;3.72;;
35418;SDS011;21525;41.240;16.500;2023-01-19T10:24:57;13.27;;;4.35;;
35418;SDS011;21525;41.240;16.500;2023-01-19T10:27:27;11.60;;;4.70;;
35418;SDS011;21525;41.240;16.500;2023-01-19T10:29:55;9.13;;;3.05;;
35418;SDS011;21525;41.240;16.500;2023-01-19T10:34:55;7.03;;;1.95;;
35418;SDS011;21525;41.240;16.500;2023-01-19T10:37:27;7.50;;;2.15;;
35418;SDS011;21525;41.240;16.500;2023-01-19T10:39:57;5.80;;;2.47;;
35418;SDS011;21525;41.240;16.500;2023-01-19T10:42:27;7.97;;;2.28;;
35418;SDS011;21525;41.240;16.500;2023-01-19T10:44:54;6.43;;;2.80;;
35418;SDS011;21525;41.240;16.500;2023-01-19T10:47:20;10.65;;;2.60;;
35418;SDS011;21525;41.240;16.500;2023-01-19T10:49:54;8.43;;;4.20;;
35418;SDS011;21525;41.240;16.500;2023-01-19T10:54:55;13.35;;;6.47;;
35418;SDS011;21525;41.240;16.500;2023-01-19T10:57:25;12.43;;;6.00;;
35418;SDS011;21525;41.240;16.500;2023-01-19T10:59:55;9.65;;;3.85;;
35418;SDS011;21525;41.240;16.500;2023-01-19T11:02:22;6.88;;;2.92;;
35418;SDS011;21525;41.240;16.500;2023-01-19T11:04:56;9.65;;;2.95;;
35418;SDS011;21525;41.240;16.500;2023-01-19T11:12:39;4.40;;;2.70;;
35418;SDS011;21525;41.240;16.500;2023-01-19T11:17:57;8.68;;;2.70;;
35418;SDS011;21525;41.240;16.500;2023-01-19T11:25:50;8.82;;;3.00;;
35418;SDS011;21525;41.240;16.500;2023-01-19T11:28:25;6.82;;;3.33;;
35418;SDS011;21525;41.240;16.500;2023-01-19T11:30:58;10.25;;;4.53;;
35418;SDS011;21525;41.240;16.500;2023-01-19T11:33:48;7.45;;;3.35;;
35418;SDS011;21525;41.240;16.500;2023-01-19T11:36:22;7.32;;;2.72;;
35418;SDS011;21525;41.240;16.500;2023-01-19T11:38:53;10.38;;;3.05;;
35418;SDS011;21525;41.240;16.500;2023-01-19T11:43:52;7.28;;;2.50;;
35418;SDS011;21525;41.240;16.500;2023-01-19T11:46:21;3.97;;;1.60;;
35418;SDS011;21525;41.240;16.500;2023-01-19T11:48:53;3.58;;;1.40;;
35418;SDS011;21525;41.240;16.500;2023-01-19T11:51:29;3.92;;;1.77;;
35418;SDS011;21525;41.240;16.500;2023-01-19T11:54:16;6.05;;;2.53;;
35418;SDS011;21525;41.240;16.500;2023-01-19T11:56:48;5.80;;;2.33;;
35418;SDS011;21525;41.240;16.500;2023-01-19T11:59:16;2.42;;;1.70;;
35418;SDS011;21525;41.240;16.500;2023-01-19T12:01:48;7.15;;;2.05;;
35418;SDS011;21525;41.240;16.500;2023-01-19T12:04:21;4.43;;;2.28;;
35418;SDS011;21525;41.240;16.500;2023-01-19T12:06:52;9.32;;;2.72;;
35418;SDS011;21525;41.240;16.500;2023-01-19T12:09:30;10.90;;;3.40;;
35418;SDS011;21525;41.240;16.500;2023-01-19T12:12:05;4.88;;;1.67;;
35418;SDS011;21525;41.240;16.500;2023-01-19T12:17:27;4.47;;;1.60;;
35418;SDS011;21525;41.240;16.500;2023-01-19T12:20:02;6.47;;;1.70;;
35418;SDS011;21525;41.240;16.500;2023-01-19T12:22:34;7.78;;;2.28;;
35418;SDS011;21525;41.240;16.500;2023-01-19T12:27:54;6.13;;;2.40;;
35418;SDS011;21525;41.240;16.500;2023-01-19T12:30:22;7.85;;;2.58;;
35418;SDS011;21525;41.240;16.500;2023-01-19T12:32:51;7.95;;;2.10;;
35418;SDS011;21525;41.240;16.500;2023-01-19T12:35:58;6.70;;;2.30;;
35418;SDS011;21525;41.240;16.500;2023-01-19T12:46:37;8.40;;;2.22;;
35418;SDS011;21525;41.240;16.500;2023-01-19T12:51:52;8.05;;;2.20;;
35418;SDS011;21525;41.240;16.500;2023-01-19T12:54:40;6.63;;;2.08;;
35418;SDS011;21525;41.240;16.500;2023-01-19T13:02:47;8.63;;;2.10;;
35418;SDS011;21525;41.240;16.500;2023-01-19T13:05:47;6.22;;;2.35;;
35418;SDS011;21525;41.240;16.500;2023-01-19T13:08:24;9.02;;;1.83;;
35418;SDS011;21525;41.240;16.500;2023-01-19T13:26:31;11.00;;;3.20;;
35418;SDS011;21525;41.240;16.500;2023-01-19T13:29:09;14.02;;;3.20;;
35418;SDS011;21525;41.240;16.500;2023-01-19T13:31:41;11.63;;;2.35;;
35418;SDS011;21525;41.240;16.500;2023-01-19T13:34:17;9.90;;;2.38;;
35418;SDS011;21525;41.240;16.500;2023-01-19T13:36:49;9.35;;;3.15;;
35418;SDS011;21525;41.240;16.500;2023-01-19T13:39:18;10.80;;;2.90;;
35418;SDS011;21525;41.240;16.500;2023-01-19T13:41:51;8.43;;;2.50;;
35418;SDS011;21525;41.240;16.500;2023-01-19T13:46:48;8.45;;;2.47;;
35418;SDS011;21525;41.240;16.500;2023-01-19T13:49:17;12.50;;;3.13;;
35418;SDS011;21525;41.240;16.500;2023-01-19T13:52:21;17.20;;;2.88;;
35418;SDS011;21525;41.240;16.500;2023-01-19T13:54:57;10.93;;;2.75;;
35418;SDS011;21525;41.240;16.500;2023-01-19T14:05:30;16.13;;;3.80;;
35418;SDS011;21525;41.240;16.500;2023-01-19T14:07:58;17.30;;;3.58;;
35418;SDS011;21525;41.240;16.500;2023-01-19T14:10:24;19.45;;;3.30;;
35418;SDS011;21525;41.240;16.500;2023-01-19T14:12:57;12.40;;;3.25;;
35418;SDS011;21525;41.240;16.500;2023-01-19T14:15:24;14.75;;;3.33;;
35418;SDS011;21525;41.240;16.500;2023-01-19T14:18:09;15.38;;;3.67;;
35418;SDS011;21525;41.240;16.500;2023-01-19T14:20:38;14.35;;;3.47;;
35418;SDS011;21525;41.240;16.500;2023-01-19T14:23:05;18.58;;;3.97;;
35418;SDS011;21525;41.240;16.500;2023-01-19T14:25:51;16.10;;;4.82;;
35418;SDS011;21525;41.240;16.500;2023-01-19T14:28:40;22.20;;;8.73;;
35418;SDS011;21525;41.240;16.500;2023-01-19T14:31:21;25.65;;;11.43;;
35418;SDS011;21525;41.240;16.500;2023-01-19T14:33:50;27.05;;;14.48;;
35418;SDS011;21525;41.240;16.500;2023-01-19T14:39:00;31.88;;;15.18;;
35418;SDS011;21525;41.240;16.500;2023-01-19T14:41:37;28.27;;;13.00;;
35418;SDS011;21525;41.240;16.500;2023-01-19T14:44:25;33.67;;;14.23;;
35418;SDS011;21525;41.240;16.500;2023-01-19T14:47:00;24.92;;;13.50;;
35418;SDS011;21525;41.240;16.500;2023-01-19T14:52:00;31.75;;;16.08;;
35418;SDS011;21525;41.240;16.500;2023-01-19T14:54:34;32.40;;;15.20;;
35418;SDS011;21525;41.240;16.500;2023-01-19T14:57:04;30.40;;;14.02;;
35418;SDS011;21525;41.240;16.500;2023-01-19T14:59:38;28.63;;;13.52;;
35418;SDS011;21525;41.240;16.500;2023-01-19T15:02:05;22.60;;;8.82;;
35418;SDS011;21525;41.240;16.500;2023-01-19T15:04:31;24.58;;;9.65;;
35418;SDS011;21525;41.240;16.500;2023-01-19T15:06:57;22.92;;;10.95;;
35418;SDS011;21525;41.240;16.500;2023-01-19T15:09:23;21.48;;;9.38;;
35418;SDS011;21525;41.240;16.500;2023-01-19T15:11:49;14.48;;;5.60;;
35418;SDS011;21525;41.240;16.500;2023-01-19T15:14:16;15.80;;;4.00;;
35418;SDS011;21525;41.240;16.500;2023-01-19T15:16:43;17.30;;;4.82;;
35418;SDS011;21525;41.240;16.500;2023-01-19T15:19:13;14.18;;;3.97;;
35418;SDS011;21525;41.240;16.500;2023-01-19T15:21:40;12.23;;;4.00;;
35418;SDS011;21525;41.240;16.500;2023-01-19T15:24:09;13.18;;;4.40;;
35418;SDS011;21525;41.240;16.500;2023-01-19T15:26:39;9.60;;;4.20;;
35418;SDS011;21525;41.240;16.500;2023-01-19T15:29:24;13.75;;;4.75;;
35418;SDS011;21525;41.240;16.500;2023-01-19T15:31:50;11.98;;;5.50;;
35418;SDS011;21525;41.240;16.500;2023-01-19T15:34:17;13.80;;;6.47;;
35418;SDS011;21525;41.240;16.500;2023-01-19T15:36:43;12.88;;;5.43;;
35418;SDS011;21525;41.240;16.500;2023-01-19T15:39:09;11.95;;;5.30;;
35418;SDS011;21525;41.240;16.500;2023-01-19T15:41:35;9.23;;;3.75;;
35418;SDS011;21525;41.240;16.500;2023-01-19T15:44:03;11.88;;;3.65;;
35418;SDS011;21525;41.240;16.500;2023-01-19T15:46:34;8.38;;;3.60;;
35418;SDS011;21525;41.240;16.500;2023-01-19T15:49:00;11.52;;;3.65;;
35418;SDS011;21525;41.240;16.500;2023-01-19T15:51:26;11.63;;;4.65;;
35418;SDS011;21525;41.240;16.500;2023-01-19T15:53:52;9.57;;;4.32;;
35418;SDS011;21525;41.240;16.500;2023-01-19T15:56:20;12.07;;;4.30;;
35418;SDS011;21525;41.240;16.500;2023-01-19T15:58:51;15.15;;;5.38;;
35418;SDS011;21525;41.240;16.500;2023-01-19T16:01:18;20.88;;;5.72;;
35418;SDS011;21525;41.240;16.500;2023-01-19T16:03:46;13.93;;;6.32;;
35418;SDS011;21525;41.240;16.500;2023-01-19T16:06:12;16.83;;;6.88;;
35418;SDS011;21525;41.240;16.500;2023-01-19T16:08:40;19.08;;;6.85;;
35418;SDS011;21525;41.240;16.500;2023-01-19T16:11:14;15.82;;;5.90;;
35418;SDS011;21525;41.240;16.500;2023-01-19T16:13:43;11.50;;;4.88;;
35418;SDS011;21525;41.240;16.500;2023-01-19T16:16:14;13.02;;;6.10;;
35418;SDS011;21525;41.240;16.500;2023-01-19T16:18:45;15.07;;;6.20;;
35418;SDS011;21525;41.240;16.500;2023-01-19T16:21:11;19.83;;;6.82;;
35418;SDS011;21525;41.240;16.500;2023-01-19T16:23:37;21.73;;;7.18;;
35418;SDS011;21525;41.240;16.500;2023-01-19T16:26:04;16.77;;;6.70;;
35418;SDS011;21525;41.240;16.500;2023-01-19T16:28:34;13.85;;;5.78;;
35418;SDS011;21525;41.240;16.500;2023-01-19T16:31:01;15.30;;;6.10;;
35418;SDS011;21525;41.240;16.500;2023-01-19T16:33:27;14.57;;;6.25;;
35418;SDS011;21525;41.240;16.500;2023-01-19T16:35:53;18.58;;;7.03;;
35418;SDS011;21525;41.240;16.500;2023-01-19T16:38:20;17.50;;;7.60;;
35418;SDS011;21525;41.240;16.500;2023-01-19T16:40:47;19.93;;;7.70;;
35418;SDS011;21525;41.240;16.500;2023-01-19T16:43:13;19.77;;;7.85;;
35418;SDS011;21525;41.240;16.500;2023-01-19T16:46:01;21.17;;;9.43;;
35418;SDS011;21525;41.240;16.500;2023-01-19T16:48:27;22.58;;;10.27;;
35418;SDS011;21525;41.240;16.500;2023-01-19T16:50:57;17.38;;;8.35;;
35418;SDS011;21525;41.240;16.500;2023-01-19T16:53:28;18.27;;;8.23;;
35418;SDS011;21525;41.240;16.500;2023-01-19T16:55:54;19.30;;;11.35;;
35418;SDS011;21525;41.240;16.500;2023-01-19T16:58:20;16.00;;;7.18;;
35418;SDS011;21525;41.240;16.500;2023-01-19T17:00:46;19.45;;;8.60;;